Time;durP1;ratioP1;P1;durP2;ratioP2;P2;SDS_P1;SDS_P2;PMS_P1;PMS_P2;Temp;Humidity;BMP_temperature;BMP_pressure;BME280_temperature;BME280_humidity;BME280_pressure;Samples;Min_cycle;Max_cycle;Signal;HPM_P1;HPM_P2
2021/07/24 00:00:21;;;;;;;13.32;11.30;;;16.60;99.90;;;;;;5035101;28;20045;-74
2021/07/24 00:02:47;;;;;;;15.65;12.93;;;16.50;99.90;;;;;;5049233;28;20049;-74
2021/07/24 00:05:15;;;;;;;17.20;12.75;;;16.40;99.90;;;;;;5048649;28;20044;-75
2021/07/24 00:07:42;;;;;;;18.38;14.10;;;16.30;99.90;;;;;;5044372;28;20556;-73
2021/07/24 00:10:09;;;;;;;16.02;14.30;;;16.40;99.90;;;;;;5028611;28;20045;-74
2021/07/24 00:12:35;;;;;;;15.27;13.52;;;16.40;99.90;;;;;;5029303;28;20050;-74
2021/07/24 00:15:02;;;;;;;16.33;12.57;;;16.40;99.90;;;;;;5029227;28;20046;-74
2021/07/24 00:17:28;;;;;;;17.10;13.30;;;16.50;99.90;;;;;;5029159;28;20517;-74
2021/07/24 00:19:55;;;;;;;15.15;12.48;;;16.40;99.90;;;;;;5028765;28;20041;-74
2021/07/24 00:22:23;;;;;;;18.42;13.75;;;16.40;99.90;;;;;;5033439;28;20159;-74
2021/07/24 00:24:49;;;;;;;17.70;13.25;;;16.40;99.90;;;;;;5049071;28;20536;-74
2021/07/24 00:27:16;;;;;;;17.15;12.90;;;16.40;99.90;;;;;;5048219;28;20041;-74
2021/07/24 00:29:42;;;;;;;17.17;12.90;;;16.40;99.90;;;;;;5048403;28;20171;-73
2021/07/24 00:32:09;;;;;;;16.58;12.52;;;16.40;99.90;;;;;;5066861;28;20102;-75
2021/07/24 00:34:36;;;;;;;14.00;12.23;;;16.40;99.90;;;;;;5073823;28;20106;-80
2021/07/24 00:37:03;;;;;;;15.38;12.90;;;16.50;99.90;;;;;;5074505;28;20044;-75
2021/07/24 00:39:31;;;;;;;17.45;13.65;;;16.40;99.90;;;;;;5054758;28;20044;-75
2021/07/24 00:42:08;;;;;;;15.50;12.07;;;16.40;99.90;;;;;;5055209;28;20049;-75
2021/07/24 00:44:38;;;;;;;14.70;12.75;;;16.40;99.90;;;;;;5066554;28;20099;-76
2021/07/24 00:47:06;;;;;;;15.73;12.02;;;16.40;99.90;;;;;;5060244;28;20072;-75
2021/07/24 00:49:34;;;;;;;15.18;12.93;;;16.30;99.90;;;;;;5074468;28;20090;-75
2021/07/24 00:52:00;;;;;;;15.02;13.10;;;16.40;99.90;;;;;;5055125;28;20045;-75
2021/07/24 00:54:28;;;;;;;17.42;13.48;;;16.30;99.90;;;;;;5055087;28;20559;-73
2021/07/24 00:56:56;;;;;;;13.98;12.52;;;16.40;99.90;;;;;;5054823;28;20056;-75
2021/07/24 00:59:23;;;;;;;16.70;13.65;;;16.40;99.90;;;;;;5054464;28;20041;-75
2021/07/24 01:01:51;;;;;;;19.40;13.85;;;16.30;99.90;;;;;;5055045;28;20067;-75
2021/07/24 01:04:18;;;;;;;17.15;14.00;;;16.30;99.90;;;;;;5054947;28;20056;-75
2021/07/24 01:06:46;;;;;;;17.95;12.63;;;16.20;99.90;;;;;;5054713;28;20045;-74
2021/07/24 01:09:13;;;;;;;17.00;13.65;;;16.20;99.90;;;;;;5053966;28;20391;-74
2021/07/24 01:11:40;;;;;;;22.13;13.27;;;16.10;99.90;;;;;;5055450;28;20107;-74
2021/07/24 01:14:08;;;;;;;21.13;15.85;;;16.00;99.90;;;;;;5074755;28;20048;-76
2021/07/24 01:16:35;;;;;;;31.48;23.20;;;16.10;99.90;;;;;;5074300;28;20048;-74
2021/07/24 01:19:02;;;;;;;29.40;23.42;;;15.90;99.90;;;;;;5057381;28;20041;-73
2021/07/24 01:21:30;;;;;;;36.55;29.02;;;15.90;99.90;;;;;;5054451;28;20091;-73
2021/07/24 01:23:57;;;;;;;40.75;31.85;;;15.90;99.90;;;;;;5073664;28;20048;-74
2021/07/24 01:26:25;;;;;;;35.97;27.73;;;15.90;99.90;;;;;;5074590;28;20044;-73
2021/07/24 01:28:52;;;;;;;34.55;26.13;;;16.00;99.90;;;;;;5073911;28;20044;-74
2021/07/24 01:31:19;;;;;;;36.65;26.23;;;16.00;99.90;;;;;;5074544;28;20044;-73
2021/07/24 01:33:45;;;;;;;34.65;23.27;;;16.00;99.90;;;;;;5074512;28;20297;-74
2021/07/24 01:36:12;;;;;;;28.65;21.75;;;16.00;99.90;;;;;;5072421;28;20044;-74
2021/07/24 01:38:41;;;;;;;26.80;21.50;;;16.00;99.90;;;;;;5073485;28;20040;-75
2021/07/24 01:41:08;;;;;;;28.58;20.50;;;16.00;99.90;;;;;;5069615;28;20041;-74
2021/07/24 01:43:35;;;;;;;24.05;18.73;;;16.00;99.90;;;;;;5054440;28;20463;-75
2021/07/24 01:46:02;;;;;;;25.45;17.27;;;16.10;99.90;;;;;;5055832;28;20037;-74
2021/07/24 01:48:36;;;;;;;19.20;15.55;;;16.10;99.90;;;;;;5074292;28;20079;-74
2021/07/24 01:53:48;;;;;;;21.25;15.48;;;16.00;99.90;;;;;;5073786;28;20182;-75
2021/07/24 01:56:18;;;;;;;18.77;14.65;;;16.00;99.90;;;;;;5074513;28;20057;-75
2021/07/24 01:58:45;;;;;;;15.77;14.18;;;16.00;99.90;;;;;;5072457;28;20101;-75
2021/07/24 02:01:12;;;;;;;15.70;14.02;;;16.00;99.90;;;;;;5067236;28;20513;-74
2021/07/24 02:03:42;;;;;;;19.65;12.88;;;15.90;99.90;;;;;;5053432;28;20051;-73
2021/07/24 02:06:11;;;;;;;15.85;13.63;;;15.90;99.90;;;;;;5053781;28;20455;-73
2021/07/24 02:08:38;;;;;;;17.55;13.48;;;15.90;99.90;;;;;;5053200;28;20098;-74
2021/07/24 02:11:06;;;;;;;16.23;12.18;;;15.80;99.90;;;;;;5064579;28;20082;-73
2021/07/24 02:13:33;;;;;;;18.83;13.80;;;15.90;99.90;;;;;;5073784;28;20040;-72
2021/07/24 02:15:59;;;;;;;17.40;14.20;;;15.90;99.90;;;;;;5073383;28;20481;-73
2021/07/24 02:18:26;;;;;;;18.38;13.35;;;15.80;99.90;;;;;;5059147;28;20049;-74
2021/07/24 02:20:54;;;;;;;17.67;13.00;;;15.70;99.90;;;;;;5053055;28;20525;-74
2021/07/24 02:23:21;;;;;;;18.05;12.93;;;15.70;99.90;;;;;;5055064;28;20459;-74
2021/07/24 02:25:48;;;;;;;19.42;12.68;;;15.70;99.90;;;;;;5073456;28;20052;-73
2021/07/24 02:28:16;;;;;;;16.02;13.38;;;15.60;99.90;;;;;;5073151;28;20533;-75
2021/07/24 02:30:43;;;;;;;15.85;12.80;;;15.60;99.90;;;;;;5061509;28;20563;-74
2021/07/24 02:33:09;;;;;;;16.48;12.43;;;15.70;99.90;;;;;;5053130;28;20045;-73
2021/07/24 02:35:36;;;;;;;16.73;13.10;;;15.70;99.90;;;;;;5062714;28;20232;-73
2021/07/24 02:38:03;;;;;;;16.45;13.43;;;15.70;99.90;;;;;;5072875;28;20178;-73
2021/07/24 02:40:30;;;;;;;16.73;13.48;;;15.60;99.90;;;;;;5072343;28;20044;-73
2021/07/24 02:42:57;;;;;;;15.50;12.43;;;15.60;99.90;;;;;;5073075;28;20535;-73
2021/07/24 02:45:25;;;;;;;18.10;13.25;;;15.50;99.90;;;;;;5072743;28;20102;-73
2021/07/24 02:47:52;;;;;;;15.88;12.85;;;15.40;99.90;;;;;;5072948;28;20053;-73
2021/07/24 02:50:19;;;;;;;17.40;14.40;;;15.50;99.90;;;;;;5061465;28;20048;-73
2021/07/24 02:52:46;;;;;;;17.60;13.35;;;15.40;99.90;;;;;;5052732;28;20045;-73
2021/07/24 02:55:13;;;;;;;18.95;13.50;;;15.40;99.90;;;;;;5052673;28;20045;-74
2021/07/24 02:57:39;;;;;;;21.67;14.95;;;15.30;99.90;;;;;;5052182;28;20041;-75
2021/07/24 03:00:07;;;;;;;19.85;13.82;;;15.20;99.90;;;;;;5052262;28;20346;-74
2021/07/24 03:02:35;;;;;;;19.98;14.63;;;15.20;99.90;;;;;;5052699;28;20049;-73
2021/07/24 03:05:02;;;;;;;20.05;14.68;;;15.30;99.90;;;;;;5052614;28;20102;-74
2021/07/24 03:07:29;;;;;;;19.27;14.63;;;15.30;99.90;;;;;;5052339;28;20041;-74
2021/07/24 03:09:55;;;;;;;18.42;14.55;;;15.40;99.90;;;;;;5051793;28;20049;-74
2021/07/24 03:12:22;;;;;;;20.02;13.38;;;15.40;99.90;;;;;;5054963;28;20497;-73
2021/07/24 03:14:49;;;;;;;17.35;13.10;;;15.50;99.90;;;;;;5072673;28;20049;-74
2021/07/24 03:17:15;;;;;;;18.20;13.82;;;15.50;99.90;;;;;;5066475;28;20049;-74
2021/07/24 03:19:43;;;;;;;18.75;14.98;;;15.50;99.90;;;;;;5051604;28;20036;-73
2021/07/24 03:22:10;;;;;;;18.77;13.20;;;15.50;99.90;;;;;;5052130;28;20048;-75
2021/07/24 03:24:36;;;;;;;21.92;13.73;;;15.50;99.90;;;;;;5052696;28;20118;-75
2021/07/24 03:27:03;;;;;;;21.40;13.55;;;15.50;99.90;;;;;;5052261;28;20041;-78
2021/07/24 03:29:30;;;;;;;25.10;17.35;;;15.40;99.90;;;;;;5051909;28;20095;-75
2021/07/24 03:31:57;;;;;;;31.42;21.55;;;15.40;99.90;;;;;;5066645;28;20048;-73
2021/07/24 03:34:23;;;;;;;22.02;15.40;;;15.50;99.90;;;;;;5072348;28;20048;-74
2021/07/24 03:36:51;;;;;;;21.33;14.65;;;15.50;99.90;;;;;;5072120;28;20044;-74
2021/07/24 03:39:18;;;;;;;21.45;15.10;;;15.50;99.90;;;;;;5071608;28;20090;-75
2021/07/24 03:41:44;;;;;;;19.85;14.38;;;15.40;99.90;;;;;;5072326;28;20044;-75
2021/07/24 03:44:11;;;;;;;21.08;14.55;;;15.30;99.90;;;;;;5072242;28;20097;-73
2021/07/24 03:46:38;;;;;;;19.52;14.20;;;15.30;99.90;;;;;;5060224;28;20048;-76
2021/07/24 03:49:04;;;;;;;18.75;14.32;;;15.30;99.90;;;;;;5051672;28;20099;-75
2021/07/24 03:51:31;;;;;;;24.23;15.00;;;15.30;99.90;;;;;;5051915;28;20041;-75
2021/07/24 03:53:59;;;;;;;18.63;14.52;;;15.30;99.90;;;;;;5051886;28;20049;-75
2021/07/24 03:56:25;;;;;;;17.38;15.18;;;15.40;99.90;;;;;;5052519;28;20450;-75
2021/07/24 03:58:53;;;;;;;18.45;14.10;;;15.40;99.90;;;;;;5052234;28;20566;-75
2021/07/24 04:01:21;;;;;;;18.33;13.70;;;15.50;99.90;;;;;;5052167;28;20045;-75
2021/07/24 04:03:48;;;;;;;22.13;14.80;;;15.50;99.90;;;;;;5051984;28;20056;-74
2021/07/24 04:06:20;;;;;;;17.92;14.18;;;15.60;99.90;;;;;;5052407;28;20049;-74
2021/07/24 04:08:47;;;;;;;22.00;13.48;;;15.70;99.90;;;;;;5053356;28;20416;-74
2021/07/24 04:11:16;;;;;;;14.63;12.68;;;15.80;99.90;;;;;;5072706;28;20045;-75
2021/07/24 04:13:43;;;;;;;20.38;13.27;;;15.90;99.90;;;;;;5076522;28;20397;-74
2021/07/24 04:16:09;;;;;;;22.05;13.98;;;16.00;99.90;;;;;;5076501;28;20052;-74
2021/07/24 04:18:36;;;;;;;16.30;12.57;;;16.10;99.90;;;;;;5064164;28;20109;-73
2021/07/24 04:21:03;;;;;;;17.65;12.43;;;16.20;99.90;;;;;;5075863;28;20041;-73
2021/07/24 04:23:30;;;;;;;28.58;18.73;;;16.30;99.90;;;;;;5076208;28;20048;-74
2021/07/24 04:25:56;;;;;;;30.67;19.75;;;16.40;99.90;;;;;;5074742;28;20090;-74
2021/07/24 04:28:25;;;;;;;19.40;13.77;;;16.40;99.90;;;;;;5065861;28;20109;-74
2021/07/24 04:30:51;;;;;;;34.80;21.77;;;16.50;99.90;;;;;;5075217;28;20098;-74
2021/07/24 04:33:18;;;;;;;44.38;27.92;;;16.60;99.90;;;;;;5074406;28;20554;-74
2021/07/24 04:35:46;;;;;;;17.08;13.25;;;16.70;99.90;;;;;;5075503;28;20044;-73
2021/07/24 04:38:12;;;;;;;20.02;13.88;;;16.80;99.90;;;;;;5076229;28;20455;-74
2021/07/24 04:40:39;;;;;;;52.90;28.48;;;16.90;99.90;;;;;;5074798;28;20048;-75
2021/07/24 04:43:06;;;;;;;28.88;18.17;;;17.00;99.90;;;;;;5074884;28;20501;-73
2021/07/24 04:45:34;;;;;;;24.63;14.75;;;17.10;99.90;;;;;;5072514;28;20217;-74
2021/07/24 04:48:01;;;;;;;17.80;12.90;;;17.30;99.90;;;;;;5054851;28;20098;-74
2021/07/24 04:50:28;;;;;;;20.27;15.18;;;17.40;99.90;;;;;;5055000;28;20114;-75
2021/07/24 04:52:55;;;;;;;21.17;13.75;;;17.50;99.90;;;;;;5055416;28;20040;-74
2021/07/24 04:55:24;;;;;;;21.45;15.00;;;17.60;99.90;;;;;;5055401;28;20099;-68
2021/07/24 04:57:51;;;;;;;17.70;12.85;;;17.80;99.90;;;;;;5068538;28;20048;-72
2021/07/24 05:00:18;;;;;;;18.23;12.88;;;17.90;99.90;;;;;;5066551;28;20058;-74
2021/07/24 05:02:46;;;;;;;17.33;11.45;;;17.90;99.90;;;;;;5058391;28;20095;-76
2021/07/24 05:05:13;;;;;;;27.10;16.73;;;18.00;99.90;;;;;;5071218;28;20447;-75
2021/07/24 05:07:41;;;;;;;19.63;14.18;;;18.10;99.90;;;;;;5071922;28;20095;-72
2021/07/24 05:10:10;;;;;;;18.73;14.50;;;18.20;99.90;;;;;;5053704;28;20045;-70
2021/07/24 05:12:37;;;;;;;23.52;17.45;;;18.30;99.90;;;;;;5067470;28;20452;-71
2021/07/24 05:15:05;;;;;;;67.97;39.08;;;18.50;99.90;;;;;;5067577;28;20413;-74
2021/07/24 05:17:31;;;;;;;23.88;15.43;;;18.60;99.90;;;;;;5053672;28;20040;-76
2021/07/24 05:19:59;;;;;;;20.88;14.32;;;18.70;99.90;;;;;;5053658;28;20401;-77
2021/07/24 05:22:26;;;;;;;19.55;13.85;;;18.80;99.90;;;;;;5054710;28;20045;-78
2021/07/24 05:24:52;;;;;;;18.35;12.82;;;19.00;99.90;;;;;;5054804;28;20045;-73
2021/07/24 05:27:19;;;;;;;15.85;12.05;;;19.10;99.90;;;;;;5054063;28;20421;-73
2021/07/24 05:29:46;;;;;;;18.60;11.82;;;19.30;99.90;;;;;;5053466;28;20045;-77
2021/07/24 05:32:13;;;;;;;20.77;11.65;;;19.40;99.90;;;;;;5053987;28;20480;-72
2021/07/24 05:34:40;;;;;;;26.80;14.23;;;19.50;99.90;;;;;;5054070;28;20593;-73
2021/07/24 05:37:07;;;;;;;20.98;13.23;;;19.60;99.90;;;;;;5054155;28;20044;-72
2021/07/24 05:39:34;;;;;;;15.75;11.93;;;19.70;99.90;;;;;;5054560;28;20041;-78
2021/07/24 05:42:01;;;;;;;14.07;11.23;;;19.80;99.90;;;;;;5054179;28;20279;-77
2021/07/24 05:44:27;;;;;;;18.90;12.15;;;19.80;99.90;;;;;;5063424;28;20048;-70
2021/07/24 05:46:54;;;;;;;16.83;11.05;;;19.90;99.90;;;;;;5063963;28;20053;-73
2021/07/24 05:49:20;;;;;;;14.57;10.82;;;20.00;99.90;;;;;;5059174;28;20451;-73
2021/07/24 05:51:47;;;;;;;15.50;11.25;;;20.10;99.90;;;;;;5074005;28;20040;-75
2021/07/24 05:54:17;;;;;;;14.20;11.88;;;20.30;99.90;;;;;;5071663;28;20471;-76
2021/07/24 05:56:44;;;;;;;16.27;11.95;;;20.40;99.90;;;;;;5065382;28;20048;-78
2021/07/24 05:59:10;;;;;;;12.27;10.82;;;20.50;99.90;;;;;;5054216;28;20075;-73
2021/07/24 06:01:37;;;;;;;18.20;12.73;;;20.70;99.90;;;;;;5061785;28;20040;-76
2021/07/24 06:04:04;;;;;;;16.98;11.75;;;20.90;99.90;;;;;;5072759;28;20048;-75
2021/07/24 06:06:30;;;;;;;14.07;11.10;;;21.20;99.90;;;;;;5073829;28;20048;-70
2021/07/24 06:08:57;;;;;;;14.90;11.15;;;21.40;99.90;;;;;;5072323;28;20044;-70
2021/07/24 06:11:25;;;;;;;17.70;12.30;;;21.70;99.90;;;;;;5072619;28;20094;-70
2021/07/24 06:13:51;;;;;;;18.33;13.43;;;22.00;99.90;;;;;;5068456;28;20041;-72
2021/07/24 06:16:18;;;;;;;14.48;10.98;;;22.20;99.90;;;;;;5061467;28;20044;-72
2021/07/24 06:18:45;;;;;;;12.02;9.63;;;22.40;99.90;;;;;;5057121;28;20045;-72
2021/07/24 06:21:14;;;;;;;12.60;9.38;;;22.50;99.90;;;;;;5057099;28;20390;-74
2021/07/24 06:23:41;;;;;;;12.55;10.05;;;22.70;99.90;;;;;;5053062;28;20056;-74
2021/07/24 06:26:08;;;;;;;13.32;10.45;;;22.90;99.90;;;;;;5053008;28;20052;-72
2021/07/24 06:28:36;;;;;;;18.38;13.30;;;23.30;99.90;;;;;;5054986;28;20135;-74
2021/07/24 06:31:04;;;;;;;14.15;10.73;;;23.70;99.90;;;;;;5054727;28;20113;-73
2021/07/24 06:33:32;;;;;;;17.02;10.43;;;24.00;99.90;;;;;;5065540;28;20085;-70
2021/07/24 06:35:59;;;;;;;18.90;12.50;;;24.20;99.90;;;;;;5055800;28;20425;-69
2021/07/24 06:38:26;;;;;;;17.98;12.13;;;24.50;99.90;;;;;;5065907;28;20040;-69
2021/07/24 06:40:53;;;;;;;13.48;9.50;;;24.60;99.90;;;;;;5072864;28;20054;-68
2021/07/24 06:43:20;;;;;;;13.30;10.35;;;24.80;99.90;;;;;;5072724;28;20053;-68
2021/07/24 06:45:48;;;;;;;12.43;9.60;;;24.80;99.90;;;;;;5072888;28;20049;-67
2021/07/24 06:48:15;;;;;;;16.15;9.82;;;24.80;99.90;;;;;;5072213;28;20566;-69
2021/07/24 06:50:42;;;;;;;13.25;10.63;;;24.90;99.90;;;;;;5058591;28;20498;-69
2021/07/24 06:53:09;;;;;;;15.88;11.20;;;24.80;99.90;;;;;;5052559;28;20057;-68
2021/07/24 06:55:35;;;;;;;13.10;9.63;;;25.40;99.90;;;;;;5052670;28;20099;-68
2021/07/24 06:58:02;;;;;;;12.05;10.05;;;25.80;99.90;;;;;;5052728;28;20398;-68
2021/07/24 07:00:29;;;;;;;11.45;8.95;;;26.10;98.00;;;;;;5052390;28;20049;-69
2021/07/24 07:02:58;;;;;;;10.98;8.40;;;26.10;97.20;;;;;;5065960;28;20494;-69
2021/07/24 07:05:25;;;;;;;11.35;8.88;;;26.40;96.10;;;;;;5052280;28;20045;-69
2021/07/24 07:07:52;;;;;;;11.32;8.80;;;25.80;96.10;;;;;;5053089;28;20090;-69
2021/07/24 07:10:18;;;;;;;11.77;9.30;;;25.80;95.60;;;;;;5051552;28;20045;-69
2021/07/24 07:12:45;;;;;;;9.85;8.05;;;26.10;95.20;;;;;;5052264;28;20071;-69
2021/07/24 07:15:12;;;;;;;10.77;7.72;;;26.30;94.50;;;;;;5052519;28;20499;-69
2021/07/24 07:17:38;;;;;;;10.95;7.85;;;26.50;93.30;;;;;;5072127;28;20098;-68
2021/07/24 07:20:09;;;;;;;14.13;8.13;;;26.40;92.20;;;;;;5071404;28;20049;-69
2021/07/24 07:22:36;;;;;;;9.65;8.38;;;26.30;92.60;;;;;;5052126;28;20041;-68
2021/07/24 07:25:03;;;;;;;10.75;7.60;;;26.30;92.20;;;;;;5052098;28;20107;-68
2021/07/24 07:27:30;;;;;;;10.82;8.60;;;26.60;91.60;;;;;;5051961;28;20041;-68
2021/07/24 07:29:56;;;;;;;10.45;8.60;;;26.60;91.50;;;;;;5051452;28;20048;-67
2021/07/24 07:32:23;;;;;;;11.85;8.75;;;26.90;91.50;;;;;;5052981;28;20094;-68
2021/07/24 07:34:51;;;;;;;12.15;8.38;;;27.40;91.40;;;;;;5051768;28;20075;-68
2021/07/24 07:37:19;;;;;;;10.95;8.05;;;27.70;89.30;;;;;;5071930;28;20102;-68
2021/07/24 07:39:46;;;;;;;9.82;8.77;;;28.00;87.80;;;;;;5071314;28;20041;-68
2021/07/24 07:42:12;;;;;;;12.75;8.38;;;27.70;85.10;;;;;;5052519;28;20041;-69
2021/07/24 07:44:39;;;;;;;11.38;8.90;;;27.50;84.60;;;;;;5050704;28;20045;-69
2021/07/24 07:47:05;;;;;;;10.73;7.43;;;27.50;85.40;;;;;;5051712;28;20055;-68
2021/07/24 07:49:32;;;;;;;9.95;7.53;;;27.80;83.60;;;;;;5053749;28;20040;-69
2021/07/24 07:51:59;;;;;;;13.75;10.20;;;27.90;82.70;;;;;;5071774;28;20101;-68
2021/07/24 07:54:30;;;;;;;11.15;8.68;;;28.10;82.20;;;;;;5071559;28;20489;-68
2021/07/24 07:56:57;;;;;;;10.65;8.23;;;28.30;81.50;;;;;;5071175;28;20044;-68
2021/07/24 07:59:23;;;;;;;9.88;8.13;;;28.30;80.50;;;;;;5070963;28;20508;-69
2021/07/24 08:01:50;;;;;;;10.95;8.20;;;28.50;79.50;;;;;;5071171;28;20408;-71
2021/07/24 08:04:17;;;;;;;10.80;8.48;;;28.70;78.00;;;;;;5071390;28;20045;-69
2021/07/24 08:06:43;;;;;;;10.27;8.32;;;28.20;78.20;;;;;;5071370;28;20041;-67
2021/07/24 08:09:10;;;;;;;10.80;8.00;;;28.30;77.50;;;;;;5070932;28;20098;-69
2021/07/24 08:11:38;;;;;;;10.30;7.95;;;28.70;75.80;;;;;;5071698;28;20493;-69
2021/07/24 08:14:04;;;;;;;10.65;7.95;;;28.90;74.40;;;;;;5073262;28;20451;-69
2021/07/24 08:16:31;;;;;;;10.98;8.55;;;29.20;75.70;;;;;;5071202;28;20041;-67
2021/07/24 08:18:58;;;;;;;12.57;9.70;;;29.50;74.10;;;;;;5070976;28;20045;-69
2021/07/24 08:21:24;;;;;;;11.25;9.35;;;30.00;74.20;;;;;;5071125;28;20049;-69
2021/07/24 08:23:51;;;;;;;12.32;9.35;;;30.00;71.10;;;;;;5071316;28;20098;-68
2021/07/24 08:26:17;;;;;;;12.52;9.05;;;30.50;71.70;;;;;;5071393;28;20048;-69
2021/07/24 08:28:45;;;;;;;16.23;11.60;;;30.60;67.80;;;;;;5070750;28;20401;-70
2021/07/24 08:31:15;;;;;;;11.93;10.07;;;30.70;69.90;;;;;;5071259;28;20049;-67
2021/07/24 08:33:41;;;;;;;12.60;10.10;;;30.90;69.20;;;;;;5058646;28;20044;-69
2021/07/24 08:36:08;;;;;;;14.13;8.98;;;31.20;67.20;;;;;;5051314;28;20041;-68
2021/07/24 08:38:35;;;;;;;10.65;9.55;;;31.50;64.40;;;;;;5050787;28;20048;-71
2021/07/24 08:41:02;;;;;;;12.57;9.15;;;31.40;64.10;;;;;;5050995;28;20562;-68
2021/07/24 08:43:28;;;;;;;10.75;9.30;;;31.20;64.80;;;;;;5050897;28;20045;-69
2021/07/24 08:45:58;;;;;;;13.32;8.32;;;30.60;63.30;;;;;;5051210;28;20045;-68
2021/07/24 08:48:24;;;;;;;10.63;8.88;;;30.30;63.00;;;;;;5061769;28;20102;-68
2021/07/24 08:50:54;;;;;;;9.63;8.63;;;30.70;63.60;;;;;;5070264;28;20045;-69
2021/07/24 08:53:24;;;;;;;13.68;8.20;;;31.00;61.00;;;;;;5071234;28;20044;-69
2021/07/24 08:56:02;;;;;;;10.55;8.45;;;30.60;61.10;;;;;;5074677;28;20049;-68
2021/07/24 08:58:32;;;;;;;15.05;8.32;;;29.90;62.00;;;;;;5074281;28;20083;-69
2021/07/24 09:01:00;;;;;;;10.93;8.18;;;30.10;61.00;;;;;;5073975;28;20508;-68
2021/07/24 09:03:28;;;;;;;11.05;9.38;;;29.90;61.40;;;;;;5074594;28;20094;-69
2021/07/24 09:05:55;;;;;;;12.63;8.32;;;30.50;62.00;;;;;;5074402;28;20045;-68
2021/07/24 09:08:25;;;;;;;10.05;8.43;;;31.10;61.10;;;;;;5074142;28;20102;-69
2021/07/24 09:10:53;;;;;;;11.60;7.88;;;31.40;59.00;;;;;;5074571;28;20052;-69
2021/07/24 09:13:20;;;;;;;9.23;7.97;;;30.70;59.20;;;;;;5074590;28;20040;-69
2021/07/24 09:15:46;;;;;;;12.50;9.15;;;30.90;59.20;;;;;;5073678;28;20071;-69
2021/07/24 09:18:14;;;;;;;9.55;7.90;;;31.30;58.40;;;;;;5074227;28;20110;-70
2021/07/24 09:20:42;;;;;;;12.38;10.55;;;31.50;59.00;;;;;;5056244;28;20386;-68
2021/07/24 09:23:24;;;;;;;12.95;10.25;;;32.40;59.20;;;;;;5063249;28;20045;-69
2021/07/24 09:25:51;;;;;;;12.75;9.15;;;33.40;57.40;;;;;;5062711;28;20091;-68
2021/07/24 09:28:17;;;;;;;11.20;8.13;;;33.60;57.10;;;;;;5054037;28;20049;-69
2021/07/24 09:30:44;;;;;;;13.10;10.27;;;33.80;54.40;;;;;;5054090;28;20045;-68
2021/07/24 09:33:12;;;;;;;12.93;8.65;;;34.10;54.70;;;;;;5054275;28;20103;-69
2021/07/24 09:35:41;;;;;;;10.93;9.25;;;34.10;53.70;;;;;;5054264;28;20045;-69
2021/07/24 09:38:15;;;;;;;9.38;8.07;;;34.30;52.60;;;;;;5054471;28;20052;-69
2021/07/24 09:40:43;;;;;;;9.57;8.18;;;34.10;53.00;;;;;;5053780;28;20547;-69
2021/07/24 09:43:33;;;;;;;13.00;9.70;;;34.40;51.90;;;;;;5054159;28;20102;-68
2021/07/24 09:46:10;;;;;;;12.00;8.07;;;34.60;52.00;;;;;;5054241;28;20049;-69
2021/07/24 09:48:37;;;;;;;10.00;8.27;;;34.30;52.20;;;;;;5053623;28;20102;-69
2021/07/24 09:51:05;;;;;;;15.32;10.63;;;34.30;52.30;;;;;;5065135;28;20045;-68
2021/07/24 09:53:36;;;;;;;15.23;10.38;;;34.60;51.80;;;;;;5054158;28;20067;-70
2021/07/24 09:56:03;;;;;;;9.05;8.02;;;35.40;51.80;;;;;;5055065;28;20041;-69
2021/07/24 09:58:30;;;;;;;11.77;7.22;;;35.50;50.00;;;;;;5053354;28;20098;-69
2021/07/24 10:01:04;;;;;;;8.93;7.13;;;34.60;49.00;;;;;;5055513;28;20045;-67
2021/07/24 10:03:32;;;;;;;9.88;7.28;;;33.50;50.00;;;;;;5055589;28;20071;-69
2021/07/24 10:06:00;;;;;;;8.32;6.55;;;33.00;49.90;;;;;;5053487;28;20056;-69
2021/07/24 10:08:31;;;;;;;8.20;7.13;;;33.00;49.50;;;;;;5052839;28;20136;-69
2021/07/24 10:10:58;;;;;;;9.38;7.40;;;32.50;51.20;;;;;;5068015;28;20090;-69
2021/07/24 10:13:25;;;;;;;8.02;6.63;;;32.80;50.20;;;;;;5073831;28;20071;-68
2021/07/24 10:15:52;;;;;;;8.68;7.72;;;32.60;50.80;;;;;;5067392;28;20052;-69
2021/07/24 10:18:19;;;;;;;8.88;7.55;;;32.60;51.50;;;;;;5053161;28;20041;-69
2021/07/24 10:20:47;;;;;;;7.93;6.90;;;33.00;51.80;;;;;;5053689;28;20049;-70
2021/07/24 10:23:17;;;;;;;8.60;7.53;;;34.30;49.90;;;;;;5073136;28;20044;-69
2021/07/24 10:25:50;;;;;;;9.10;7.28;;;34.20;49.90;;;;;;5073141;28;20511;-69
2021/07/24 10:28:29;;;;;;;7.95;6.97;;;34.20;49.20;;;;;;5073160;28;20052;-69
2021/07/24 10:30:58;;;;;;;11.27;8.02;;;34.30;50.10;;;;;;5056291;28;20071;-71
2021/07/24 10:33:26;;;;;;;9.68;7.50;;;35.40;49.20;;;;;;5053446;28;20087;-69
2021/07/24 10:36:10;;;;;;;8.50;7.65;;;34.80;48.00;;;;;;5053309;28;20493;-70
2021/07/24 10:38:37;;;;;;;8.82;7.13;;;33.30;50.20;;;;;;5053022;28;20045;-68
2021/07/24 10:41:37;;;;;;;9.73;7.32;;;32.50;50.80;;;;;;5056524;28;20037;-69
2021/07/24 10:44:05;;;;;;;11.15;7.72;;;32.70;53.50;;;;;;5069338;28;20041;-68
2021/07/24 10:47:09;;;;;;;7.75;6.78;;;31.40;51.80;;;;;;5052959;28;20047;-70
2021/07/24 10:50:01;;;;;;;9.55;7.80;;;30.80;53.30;;;;;;5060242;28;20045;-69
2021/07/24 10:52:46;;;;;;;9.00;7.30;;;31.20;53.60;;;;;;5075846;28;20052;-69
2021/07/24 10:55:13;;;;;;;9.85;7.10;;;32.00;53.70;;;;;;5071867;28;20044;-69
2021/07/24 10:58:12;;;;;;;8.90;7.28;;;33.60;52.90;;;;;;5052677;28;20051;-69
2021/07/24 11:00:53;;;;;;;10.50;7.78;;;34.60;48.80;;;;;;5022915;28;20060;-69
2021/07/24 11:03:48;;;;;;;8.73;6.88;;;35.60;49.40;;;;;;5049567;28;20049;-68
2021/07/24 11:06:23;;;;;;;8.50;7.70;;;36.20;47.10;;;;;;5052432;28;20148;-69
2021/07/24 11:09:03;;;;;;;8.30;7.47;;;36.60;48.00;;;;;;5051806;28;20037;-69
2021/07/24 11:11:37;;;;;;;7.63;6.75;;;36.80;46.30;;;;;;5052332;28;20049;-68
2021/07/24 11:14:05;;;;;;;8.32;7.32;;;36.10;45.60;;;;;;5052489;28;20044;-68
2021/07/24 11:17:04;;;;;;;8.80;6.68;;;35.80;46.20;;;;;;5052356;28;20045;-69
2021/07/24 11:19:31;;;;;;;9.45;7.80;;;35.50;45.80;;;;;;5044320;28;20045;-68
2021/07/24 11:22:11;;;;;;;10.85;8.52;;;35.40;46.90;;;;;;5052177;28;20048;-68
2021/07/24 11:24:38;;;;;;;8.55;7.07;;;35.90;47.30;;;;;;5064179;28;20048;-68
2021/07/24 11:27:05;;;;;;;9.65;8.15;;;35.40;46.20;;;;;;5072149;28;20098;-68
2021/07/24 11:29:33;;;;;;;8.38;7.55;;;34.30;48.90;;;;;;5071717;28;20098;-69
2021/07/24 11:32:02;;;;;;;7.85;7.07;;;34.30;48.10;;;;;;5072454;28;20044;-69
2021/07/24 11:34:30;;;;;;;9.88;7.55;;;34.30;48.00;;;;;;5071952;28;20068;-69
2021/07/24 11:36:56;;;;;;;10.60;8.57;;;34.30;48.50;;;;;;5071789;28;20489;-69
2021/07/24 11:39:24;;;;;;;12.65;9.30;;;35.30;48.20;;;;;;5064064;28;20044;-69
2021/07/24 11:41:51;;;;;;;10.00;7.05;;;35.90;47.50;;;;;;5071727;28;20500;-68
2021/07/24 11:44:24;;;;;;;8.05;6.75;;;35.40;46.70;;;;;;5071939;28;20386;-69
2021/07/24 11:47:00;;;;;;;10.00;7.28;;;35.50;46.50;;;;;;5072084;28;20048;-70
2021/07/24 11:49:26;;;;;;;7.88;7.07;;;35.40;45.90;;;;;;5061061;28;20501;-68
2021/07/24 11:51:54;;;;;;;8.25;6.70;;;35.70;46.80;;;;;;5052140;28;20053;-68
2021/07/24 11:54:32;;;;;;;8.05;7.10;;;35.90;46.20;;;;;;5052413;28;20075;-69
2021/07/24 11:56:59;;;;;;;8.32;6.63;;;35.80;46.30;;;;;;5052348;28;20073;-68
2021/07/24 11:59:27;;;;;;;8.27;6.88;;;34.90;46.00;;;;;;5055191;28;20516;-70
2021/07/24 12:01:54;;;;;;;8.60;7.40;;;35.20;45.90;;;;;;5072383;28;20051;-68
2021/07/24 12:04:22;;;;;;;8.82;7.82;;;34.80;47.00;;;;;;5072057;28;20045;-67
2021/07/24 12:06:52;;;;;;;8.43;7.47;;;34.80;47.00;;;;;;5072298;28;20489;-70
2021/07/24 12:09:20;;;;;;;8.77;6.80;;;34.30;46.60;;;;;;5070443;28;20090;-68
2021/07/24 12:11:53;;;;;;;8.57;6.53;;;34.60;47.90;;;;;;5072593;28;20458;-69
2021/07/24 12:14:22;;;;;;;8.07;6.45;;;35.60;48.10;;;;;;5071903;28;20110;-69
2021/07/24 12:17:02;;;;;;;9.77;7.45;;;36.30;46.10;;;;;;5072480;28;20403;-69
2021/07/24 12:19:36;;;;;;;8.93;7.50;;;37.00;45.90;;;;;;5071094;28;20086;-69
2021/07/24 12:22:13;;;;;;;9.75;7.93;;;37.30;46.70;;;;;;5071300;28;20759;-69
2021/07/24 12:24:40;;;;;;;8.30;7.45;;;37.70;43.90;;;;;;5071465;28;20049;-69
2021/07/24 12:27:08;;;;;;;8.40;7.10;;;37.80;44.70;;;;;;5071838;28;20044;-68
2021/07/24 12:29:51;;;;;;;8.18;7.35;;;37.50;44.60;;;;;;5071603;28;20048;-69
2021/07/24 12:32:18;;;;;;;8.48;7.57;;;37.60;44.10;;;;;;5075245;28;20481;-69
2021/07/24 12:34:47;;;;;;;9.35;6.82;;;37.40;45.60;;;;;;5074953;28;20049;-69
2021/07/24 12:37:28;;;;;;;8.20;6.28;;;36.30;43.70;;;;;;5074423;28;20053;-70
2021/07/24 12:39:55;;;;;;;9.15;7.47;;;36.00;44.80;;;;;;5054593;28;20045;-69
2021/07/24 12:42:31;;;;;;;7.30;6.53;;;35.80;45.30;;;;;;5057047;28;20049;-69